sensor_id;sensor_type;location;lat;lon;timestamp;pressure;altitude;pressure_sealevel;temperature;humidity
54592;BME280;40488;48.558;18.150;2024-01-15T00:01:57;98300.59;;;-1.29;81.80
54592;BME280;40488;48.558;18.150;2024-01-15T00:04:27;98304.78;;;-1.30;81.86
54592;BME280;40488;48.558;18.150;2024-01-15T00:06:56;98302.22;;;-1.31;81.75
54592;BME280;40488;48.558;18.150;2024-01-15T00:09:25;98284.53;;;-1.39;82.06
54592;BME280;40488;48.558;18.150;2024-01-15T00:11:56;98284.44;;;-1.44;81.84
54592;BME280;40488;48.558;18.150;2024-01-15T00:14:25;98272.69;;;-1.48;81.66
54592;BME280;40488;48.558;18.150;2024-01-15T00:16:54;98271.81;;;-1.50;81.91
54592;BME280;40488;48.558;18.150;2024-01-15T00:19:24;98265.03;;;-1.54;81.81
54592;BME280;40488;48.558;18.150;2024-01-15T00:21:54;98265.00;;;-1.55;82.16
54592;BME280;40488;48.558;18.150;2024-01-15T00:24:24;98201.59;;;-1.93;81.95
54592;BME280;40488;48.558;18.150;2024-01-15T00:26:53;98259.88;;;-1.60;81.91
54592;BME280;40488;48.558;18.150;2024-01-15T00:29:24;98258.19;;;-1.61;81.81
54592;BME280;40488;48.558;18.150;2024-01-15T00:31:53;98251.59;;;-1.59;81.83
54592;BME280;40488;48.558;18.150;2024-01-15T00:34:21;98249.78;;;-1.63;82.01
54592;BME280;40488;48.558;18.150;2024-01-15T00:36:51;98246.56;;;-1.59;81.87
54592;BME280;40488;48.558;18.150;2024-01-15T00:39:19;98250.56;;;-1.65;82.20
54592;BME280;40488;48.558;18.150;2024-01-15T00:41:48;98251.34;;;-1.68;81.79
54592;BME280;40488;48.558;18.150;2024-01-15T00:44:17;98260.34;;;-1.76;81.64
54592;BME280;40488;48.558;18.150;2024-01-15T00:46:47;98252.75;;;-1.79;82.06
54592;BME280;40488;48.558;18.150;2024-01-15T00:49:17;98256.03;;;-1.80;81.91
54592;BME280;40488;48.558;18.150;2024-01-15T00:51:46;98240.28;;;-1.77;82.15
54592;BME280;40488;48.558;18.150;2024-01-15T00:54:15;98229.44;;;-1.78;82.19
54592;BME280;40488;48.558;18.150;2024-01-15T00:56:44;98221.00;;;-1.83;81.81
54592;BME280;40488;48.558;18.150;2024-01-15T00:59:13;98226.00;;;-1.83;82.39
54592;BME280;40488;48.558;18.150;2024-01-15T01:01:43;98239.25;;;-1.85;82.12
54592;BME280;40488;48.558;18.150;2024-01-15T01:04:14;98235.81;;;-1.89;81.99
54592;BME280;40488;48.558;18.150;2024-01-15T01:06:44;98238.38;;;-1.87;82.30
54592;BME280;40488;48.558;18.150;2024-01-15T01:09:13;98243.38;;;-1.87;82.07
54592;BME280;40488;48.558;18.150;2024-01-15T01:11:43;98243.31;;;-1.90;82.24
54592;BME280;40488;48.558;18.150;2024-01-15T01:14:12;98212.16;;;-2.03;82.29
54592;BME280;40488;48.558;18.150;2024-01-15T01:16:41;98231.47;;;-1.97;82.41
54592;BME280;40488;48.558;18.150;2024-01-15T01:19:10;98244.63;;;-2.05;81.95
54592;BME280;40488;48.558;18.150;2024-01-15T01:21:40;98233.69;;;-2.08;81.86
54592;BME280;40488;48.558;18.150;2024-01-15T01:24:09;98239.22;;;-2.20;81.85
54592;BME280;40488;48.558;18.150;2024-01-15T01:26:38;98233.25;;;-2.25;81.81
54592;BME280;40488;48.558;18.150;2024-01-15T01:29:07;98220.69;;;-2.28;81.75
54592;BME280;40488;48.558;18.150;2024-01-15T01:31:36;98219.78;;;-2.31;81.92
54592;BME280;40488;48.558;18.150;2024-01-15T01:34:05;98218.91;;;-2.32;82.33
54592;BME280;40488;48.558;18.150;2024-01-15T01:36:34;98210.34;;;-2.41;82.02
54592;BME280;40488;48.558;18.150;2024-01-15T01:39:04;98207.09;;;-2.37;82.19
54592;BME280;40488;48.558;18.150;2024-01-15T01:41:34;98204.56;;;-2.40;81.95
54592;BME280;40488;48.558;18.150;2024-01-15T01:44:03;98205.34;;;-2.41;82.22
54592;BME280;40488;48.558;18.150;2024-01-15T01:46:32;98190.22;;;-2.47;82.60
54592;BME280;40488;48.558;18.150;2024-01-15T01:49:02;98180.19;;;-2.49;82.15
54592;BME280;40488;48.558;18.150;2024-01-15T01:51:34;98170.75;;;-2.59;82.01
54592;BME280;40488;48.558;18.150;2024-01-15T01:54:06;98172.44;;;-2.59;82.82
54592;BME280;40488;48.558;18.150;2024-01-15T01:56:37;98159.00;;;-2.63;82.45
54592;BME280;40488;48.558;18.150;2024-01-15T01:59:07;98159.84;;;-2.62;82.68
54592;BME280;40488;48.558;18.150;2024-01-15T02:01:36;98163.97;;;-2.64;82.30
54592;BME280;40488;48.558;18.150;2024-01-15T02:04:05;98182.22;;;-2.65;82.34
54592;BME280;40488;48.558;18.150;2024-01-15T02:06:34;98177.25;;;-2.65;82.47
54592;BME280;40488;48.558;18.150;2024-01-15T02:09:05;98166.28;;;-2.71;82.38
54592;BME280;40488;48.558;18.150;2024-01-15T02:11:34;98150.34;;;-2.76;82.63
54592;BME280;40488;48.558;18.150;2024-01-15T02:14:03;98149.47;;;-2.78;82.45
54592;BME280;40488;48.558;18.150;2024-01-15T02:16:32;98150.28;;;-2.79;82.53
54592;BME280;40488;48.558;18.150;2024-01-15T02:19:01;98146.19;;;-2.75;82.19
54592;BME280;40488;48.558;18.150;2024-01-15T02:21:31;98141.06;;;-2.81;82.75
54592;BME280;40488;48.558;18.150;2024-01-15T02:24:04;98140.22;;;-2.82;82.61
54592;BME280;40488;48.558;18.150;2024-01-15T02:26:32;98133.69;;;-2.77;82.47
54592;BME280;40488;48.558;18.150;2024-01-15T02:29:03;98134.47;;;-2.79;81.95
54592;BME280;40488;48.558;18.150;2024-01-15T02:31:33;98125.91;;;-2.87;81.76
54592;BME280;40488;48.558;18.150;2024-01-15T02:34:02;98119.16;;;-2.91;82.33
54592;BME280;40488;48.558;18.150;2024-01-15T02:36:31;98106.38;;;-3.02;81.70
54592;BME280;40488;48.558;18.150;2024-01-15T02:39:00;98114.59;;;-3.06;81.88
54592;BME280;40488;48.558;18.150;2024-01-15T02:41:30;98122.81;;;-3.10;81.84
54592;BME280;40488;48.558;18.150;2024-01-15T02:43:59;98117.06;;;-3.07;82.52
54592;BME280;40488;48.558;18.150;2024-01-15T02:46:28;98118.88;;;-3.02;81.78
54592;BME280;40488;48.558;18.150;2024-01-15T02:48:57;98119.69;;;-3.03;81.99
54592;BME280;40488;48.558;18.150;2024-01-15T02:51:26;98119.38;;;-3.13;82.26
54592;BME280;40488;48.558;18.150;2024-01-15T02:53:55;98114.41;;;-3.12;81.93
54592;BME280;40488;48.558;18.150;2024-01-15T02:56:24;98112.91;;;-3.07;82.50
54592;BME280;40488;48.558;18.150;2024-01-15T02:58:54;98113.84;;;-3.03;82.29
54592;BME280;40488;48.558;18.150;2024-01-15T03:01:23;98105.53;;;-3.02;82.07
54592;BME280;40488;48.558;18.150;2024-01-15T03:03:53;98097.94;;;-3.07;82.36
54592;BME280;40488;48.558;18.150;2024-01-15T03:06:23;98092.78;;;-3.13;82.05
54592;BME280;40488;48.558;18.150;2024-01-15T03:08:52;98092.78;;;-3.13;82.10
54592;BME280;40488;48.558;18.150;2024-01-15T03:11:21;98096.25;;;-3.08;82.27
54592;BME280;40488;48.558;18.150;2024-01-15T03:13:49;98098.13;;;-3.01;82.98
54592;BME280;40488;48.558;18.150;2024-01-15T03:16:20;98089.09;;;-2.96;82.87
54592;BME280;40488;48.558;18.150;2024-01-15T03:18:48;98086.75;;;-2.90;83.24
54592;BME280;40488;48.558;18.150;2024-01-15T03:21:17;98078.47;;;-2.89;83.03
54592;BME280;40488;48.558;18.150;2024-01-15T03:23:47;98080.53;;;-2.73;83.40
54592;BME280;40488;48.558;18.150;2024-01-15T03:26:16;98079.00;;;-2.67;83.07
54592;BME280;40488;48.558;18.150;2024-01-15T03:28:44;98078.31;;;-2.62;83.10
54592;BME280;40488;48.558;18.150;2024-01-15T03:31:13;98069.25;;;-2.58;83.12
54592;BME280;40488;48.558;18.150;2024-01-15T03:33:44;98059.25;;;-2.58;83.39
54592;BME280;40488;48.558;18.150;2024-01-15T03:36:13;98089.59;;;-2.43;83.52
54592;BME280;40488;48.558;18.150;2024-01-15T03:38:42;98086.28;;;-2.42;83.67
54592;BME280;40488;48.558;18.150;2024-01-15T03:41:11;98088.78;;;-2.42;83.12
54592;BME280;40488;48.558;18.150;2024-01-15T03:43:40;98068.78;;;-2.42;83.65
54592;BME280;40488;48.558;18.150;2024-01-15T03:46:09;98066.28;;;-2.42;83.38
54592;BME280;40488;48.558;18.150;2024-01-15T03:48:37;98082.38;;;-2.33;83.47
54592;BME280;40488;48.558;18.150;2024-01-15T03:51:08;98083.84;;;-2.39;83.54
54592;BME280;40488;48.558;18.150;2024-01-15T03:53:38;98093.84;;;-2.39;83.53
54592;BME280;40488;48.558;18.150;2024-01-15T03:56:07;98087.84;;;-2.47;83.73
54592;BME280;40488;48.558;18.150;2024-01-15T03:58:36;98085.50;;;-2.40;83.19
54592;BME280;40488;48.558;18.150;2024-01-15T04:01:08;98073.88;;;-2.39;83.55
54592;BME280;40488;48.558;18.150;2024-01-15T04:03:37;98071.38;;;-2.39;83.60
54592;BME280;40488;48.558;18.150;2024-01-15T04:06:08;98066.38;;;-2.39;83.57
54592;BME280;40488;48.558;18.150;2024-01-15T04:08:37;98057.13;;;-2.43;83.52
54592;BME280;40488;48.558;18.150;2024-01-15T04:11:06;98051.19;;;-2.48;83.48
54592;BME280;40488;48.558;18.150;2024-01-15T04:13:35;98051.06;;;-2.54;83.42
54592;BME280;40488;48.558;18.150;2024-01-15T04:16:07;98066.03;;;-2.54;83.55
54592;BME280;40488;48.558;18.150;2024-01-15T04:18:36;98060.97;;;-2.57;83.58
54592;BME280;40488;48.558;18.150;2024-01-15T04:21:06;98062.28;;;-2.72;83.38
54592;BME280;40488;48.558;18.150;2024-01-15T04:23:36;98065.44;;;-2.79;83.56
54592;BME280;40488;48.558;18.150;2024-01-15T04:26:05;98063.63;;;-2.83;83.17
54592;BME280;40488;48.558;18.150;2024-01-15T04:28:34;98061.84;;;-2.88;83.21
54592;BME280;40488;48.558;18.150;2024-01-15T04:31:03;98050.16;;;-2.91;83.08
54592;BME280;40488;48.558;18.150;2024-01-15T04:33:32;98053.59;;;-2.86;83.24
54592;BME280;40488;48.558;18.150;2024-01-15T04:36:02;98064.22;;;-2.93;83.28
54592;BME280;40488;48.558;18.150;2024-01-15T04:38:32;98051.59;;;-2.99;83.32
54592;BME280;40488;48.558;18.150;2024-01-15T04:41:05;98057.38;;;-3.00;83.27
54592;BME280;40488;48.558;18.150;2024-01-15T04:43:34;98058.03;;;-3.07;83.20
54592;BME280;40488;48.558;18.150;2024-01-15T04:46:05;98057.78;;;-3.16;83.16
54592;BME280;40488;48.558;18.150;2024-01-15T04:48:34;98050.97;;;-3.21;82.91
54592;BME280;40488;48.558;18.150;2024-01-15T04:51:04;98056.03;;;-3.20;82.80
54592;BME280;40488;48.558;18.150;2024-01-15T04:53:34;98053.22;;;-3.30;82.70
54592;BME280;40488;48.558;18.150;2024-01-15T04:56:05;98043.97;;;-3.36;82.83
54592;BME280;40488;48.558;18.150;2024-01-15T04:58:34;98047.13;;;-3.42;82.82
54592;BME280;40488;48.558;18.150;2024-01-15T05:01:03;98049.44;;;-3.48;83.08
54592;BME280;40488;48.558;18.150;2024-01-15T05:03:32;98052.69;;;-3.50;82.96
54592;BME280;40488;48.558;18.150;2024-01-15T05:06:01;98043.44;;;-3.54;82.63
54592;BME280;40488;48.558;18.150;2024-01-15T05:08:30;98036.69;;;-3.58;82.60
54592;BME280;40488;48.558;18.150;2024-01-15T05:10:59;98033.19;;;-3.65;83.07
54592;BME280;40488;48.558;18.150;2024-01-15T05:13:30;98023.50;;;-3.54;83.17
54592;BME280;40488;48.558;18.150;2024-01-15T05:15:59;98014.84;;;-3.67;82.71
54592;BME280;40488;48.558;18.150;2024-01-15T05:18:27;98028.91;;;-3.69;82.61
54592;BME280;40488;48.558;18.150;2024-01-15T05:20:57;98034.66;;;-3.71;83.06
54592;BME280;40488;48.558;18.150;2024-01-15T05:23:25;98032.16;;;-3.71;82.53
54592;BME280;40488;48.558;18.150;2024-01-15T05:25:54;98009.72;;;-3.71;82.93
54592;BME280;40488;48.558;18.150;2024-01-15T05:28:24;98015.06;;;-3.59;82.75
54592;BME280;40488;48.558;18.150;2024-01-15T05:30:54;98020.13;;;-3.56;82.52
54592;BME280;40488;48.558;18.150;2024-01-15T05:33:23;98007.88;;;-3.78;82.81
54592;BME280;40488;48.558;18.150;2024-01-15T05:35:52;98043.28;;;-3.60;82.38
54592;BME280;40488;48.558;18.150;2024-01-15T05:38:22;98044.06;;;-3.63;82.43
54592;BME280;40488;48.558;18.150;2024-01-15T05:40:51;98038.03;;;-3.69;82.75
54592;BME280;40488;48.558;18.150;2024-01-15T05:43:19;98038.94;;;-3.67;82.98
54592;BME280;40488;48.558;18.150;2024-01-15T05:45:48;98027.91;;;-3.75;82.92
54592;BME280;40488;48.558;18.150;2024-01-15T05:48:19;98036.00;;;-3.82;82.50
54592;BME280;40488;48.558;18.150;2024-01-15T05:50:48;98038.38;;;-3.87;83.00
54592;BME280;40488;48.558;18.150;2024-01-15T05:53:16;98015.47;;;-4.03;82.78
54592;BME280;40488;48.558;18.150;2024-01-15T05:55:46;98044.97;;;-3.89;82.46
54592;BME280;40488;48.558;18.150;2024-01-15T05:58:14;98040.63;;;-3.94;82.59
54592;BME280;40488;48.558;18.150;2024-01-15T06:00:44;98037.19;;;-3.98;82.80
54592;BME280;40488;48.558;18.150;2024-01-15T06:03:14;97991.47;;;-4.30;82.41
54592;BME280;40488;48.558;18.150;2024-01-15T06:05:44;98052.00;;;-4.02;82.53
54592;BME280;40488;48.558;18.150;2024-01-15T06:08:13;98040.75;;;-4.18;82.82
54592;BME280;40488;48.558;18.150;2024-01-15T06:10:42;98044.00;;;-4.21;82.62
54592;BME280;40488;48.558;18.150;2024-01-15T06:13:11;98047.47;;;-4.16;82.37
54592;BME280;40488;48.558;18.150;2024-01-15T06:15:40;98053.25;;;-4.17;82.07
54592;BME280;40488;48.558;18.150;2024-01-15T06:18:09;98046.28;;;-4.27;82.44
54592;BME280;40488;48.558;18.150;2024-01-15T06:20:39;98054.75;;;-4.22;82.45
54592;BME280;40488;48.558;18.150;2024-01-15T06:23:09;98022.16;;;-4.29;82.06
54592;BME280;40488;48.558;18.150;2024-01-15T06:25:38;98056.00;;;-4.08;82.70
54592;BME280;40488;48.558;18.150;2024-01-15T06:28:07;98057.25;;;-3.93;82.66
54592;BME280;40488;48.558;18.150;2024-01-15T06:30:37;98068.75;;;-3.98;82.34
54592;BME280;40488;48.558;18.150;2024-01-15T06:33:06;98063.56;;;-4.04;82.50
54592;BME280;40488;48.558;18.150;2024-01-15T06:35:35;98061.13;;;-4.03;82.80
54592;BME280;40488;48.558;18.150;2024-01-15T06:38:04;98055.59;;;-3.94;83.12
54592;BME280;40488;48.558;18.150;2024-01-15T06:40:36;98060.72;;;-3.88;83.37
54592;BME280;40488;48.558;18.150;2024-01-15T06:43:05;98056.91;;;-4.05;83.43
54592;BME280;40488;48.558;18.150;2024-01-15T06:45:34;98055.31;;;-4.30;83.64
54592;BME280;40488;48.558;18.150;2024-01-15T06:48:05;98058.97;;;-4.46;83.31
54592;BME280;40488;48.558;18.150;2024-01-15T06:50:35;98068.03;;;-4.48;84.21
54592;BME280;40488;48.558;18.150;2024-01-15T06:53:04;98058.97;;;-4.46;84.38
54592;BME280;40488;48.558;18.150;2024-01-15T06:55:33;98057.38;;;-4.44;84.07
54592;BME280;40488;48.558;18.150;2024-01-15T06:58:03;98065.94;;;-4.36;85.03
54592;BME280;40488;48.558;18.150;2024-01-15T07:00:32;98072.88;;;-4.26;84.45
54592;BME280;40488;48.558;18.150;2024-01-15T07:03:02;98064.44;;;-4.04;85.44
54592;BME280;40488;48.558;18.150;2024-01-15T07:05:31;98057.81;;;-3.75;84.98
54592;BME280;40488;48.558;18.150;2024-01-15T07:08:00;98066.78;;;-3.80;85.44
54592;BME280;40488;48.558;18.150;2024-01-15T07:10:29;98077.53;;;-3.81;84.82
54592;BME280;40488;48.558;18.150;2024-01-15T07:13:03;98080.22;;;-3.75;85.53
54592;BME280;40488;48.558;18.150;2024-01-15T07:15:33;98077.84;;;-3.72;85.53
54592;BME280;40488;48.558;18.150;2024-01-15T07:18:03;98090.72;;;-3.57;86.04
54592;BME280;40488;48.558;18.150;2024-01-15T07:20:33;98078.22;;;-3.29;86.01
54592;BME280;40488;48.558;18.150;2024-01-15T07:23:04;98079.28;;;-2.90;86.12
54592;BME280;40488;48.558;18.150;2024-01-15T07:25:34;98088.00;;;-2.40;86.75
54592;BME280;40488;48.558;18.150;2024-01-15T07:28:05;98091.69;;;-1.90;86.70
54592;BME280;40488;48.558;18.150;2024-01-15T07:30:33;98057.06;;;-1.73;86.21
54592;BME280;40488;48.558;18.150;2024-01-15T07:33:03;98087.03;;;-1.34;85.97
54592;BME280;40488;48.558;18.150;2024-01-15T07:35:32;98086.59;;;-1.15;85.52
54592;BME280;40488;48.558;18.150;2024-01-15T07:38:00;98091.78;;;-1.05;85.06
54592;BME280;40488;48.558;18.150;2024-01-15T07:40:30;98091.06;;;-0.99;84.59
54592;BME280;40488;48.558;18.150;2024-01-15T07:42:58;98093.56;;;-0.98;84.20
54592;BME280;40488;48.558;18.150;2024-01-15T07:45:29;98092.84;;;-0.94;83.84
54592;BME280;40488;48.558;18.150;2024-01-15T07:47:58;98097.94;;;-0.89;83.63
54592;BME280;40488;48.558;18.150;2024-01-15T07:50:27;98105.47;;;-0.88;83.22
54592;BME280;40488;48.558;18.150;2024-01-15T07:52:55;98103.03;;;-0.83;82.90
54592;BME280;40488;48.558;18.150;2024-01-15T07:55:24;98101.47;;;-0.78;82.40
54592;BME280;40488;48.558;18.150;2024-01-15T07:57:53;98114.91;;;-0.73;82.23
54592;BME280;40488;48.558;18.150;2024-01-15T08:00:43;98116.63;;;-0.72;82.16
54592;BME280;40488;48.558;18.150;2024-01-15T08:03:12;98112.41;;;-0.73;81.65
54592;BME280;40488;48.558;18.150;2024-01-15T08:05:42;98114.97;;;-0.70;81.58
54592;BME280;40488;48.558;18.150;2024-01-15T08:08:11;98120.00;;;-0.67;81.44
54592;BME280;40488;48.558;18.150;2024-01-15T08:10:41;98129.22;;;-0.68;81.12
54592;BME280;40488;48.558;18.150;2024-01-15T08:13:10;98125.88;;;-0.67;81.03
54592;BME280;40488;48.558;18.150;2024-01-15T08:15:40;98130.03;;;-0.67;80.73
54592;BME280;40488;48.558;18.150;2024-01-15T08:18:11;98115.78;;;-0.71;80.42
54592;BME280;40488;48.558;18.150;2024-01-15T08:20:41;98126.72;;;-0.66;80.29
54592;BME280;40488;48.558;18.150;2024-01-15T08:23:10;98123.44;;;-0.63;80.17
54592;BME280;40488;48.558;18.150;2024-01-15T08:25:39;98126.00;;;-0.60;80.24
54592;BME280;40488;48.558;18.150;2024-01-15T08:28:08;98110.06;;;-0.64;80.40
54592;BME280;40488;48.558;18.150;2024-01-15T08:30:37;98122.00;;;-0.51;80.12
54592;BME280;40488;48.558;18.150;2024-01-15T08:33:05;98125.47;;;-0.43;80.07
54592;BME280;40488;48.558;18.150;2024-01-15T08:35:49;98121.38;;;-0.38;79.86
54592;BME280;40488;48.558;18.150;2024-01-15T08:38:18;98117.28;;;-0.33;79.60
54592;BME280;40488;48.558;18.150;2024-01-15T08:40:48;98128.16;;;-0.31;79.33
54592;BME280;40488;48.558;18.150;2024-01-15T08:43:18;98117.34;;;-0.30;79.47
54592;BME280;40488;48.558;18.150;2024-01-15T08:45:47;98112.38;;;-0.27;79.29
54592;BME280;40488;48.558;18.150;2024-01-15T08:48:16;98114.19;;;-0.18;79.41
54592;BME280;40488;48.558;18.150;2024-01-15T08:50:45;98119.28;;;-0.14;79.71
54592;BME280;40488;48.558;18.150;2024-01-15T08:53:17;98121.91;;;-0.06;79.74
54592;BME280;40488;48.558;18.150;2024-01-15T08:55:46;98119.44;;;-0.03;79.31
54592;BME280;40488;48.558;18.150;2024-01-15T08:58:15;98107.50;;;-0.18;79.45
54592;BME280;40488;48.558;18.150;2024-01-15T09:00:45;98122.69;;;-0.09;79.45
54592;BME280;40488;48.558;18.150;2024-01-15T09:03:14;98131.06;;;-0.07;79.72
54592;BME280;40488;48.558;18.150;2024-01-15T09:05:43;98066.91;;;-0.48;79.12
54592;BME280;40488;48.558;18.150;2024-01-15T09:08:11;98139.56;;;0.02;79.36
54592;BME280;40488;48.558;18.150;2024-01-15T09:10:42;98146.25;;;0.03;79.25
54592;BME280;40488;48.558;18.150;2024-01-15T09:13:11;98142.94;;;0.04;79.48
54592;BME280;40488;48.558;18.150;2024-01-15T09:15:40;98151.28;;;0.03;78.62
54592;BME280;40488;48.558;18.150;2024-01-15T09:18:10;98132.84;;;0.00;78.53
54592;BME280;40488;48.558;18.150;2024-01-15T09:20:39;98151.31;;;0.06;78.34
54592;BME280;40488;48.558;18.150;2024-01-15T09:23:08;98136.31;;;0.07;78.43
54592;BME280;40488;48.558;18.150;2024-01-15T09:25:37;98105.94;;;-0.10;78.15
54592;BME280;40488;48.558;18.150;2024-01-15T09:28:07;98134.81;;;0.17;77.57
54592;BME280;40488;48.558;18.150;2024-01-15T09:30:36;98133.22;;;0.25;77.14
54592;BME280;40488;48.558;18.150;2024-01-15T09:33:05;98133.34;;;0.34;76.47
54592;BME280;40488;48.558;18.150;2024-01-15T09:35:34;98133.50;;;0.43;76.39
54592;BME280;40488;48.558;18.150;2024-01-15T09:38:04;98120.22;;;0.50;75.49
54592;BME280;40488;48.558;18.150;2024-01-15T09:40:33;98060.50;;;0.25;75.59
54592;BME280;40488;48.558;18.150;2024-01-15T09:43:02;98118.84;;;0.72;75.42
54592;BME280;40488;48.558;18.150;2024-01-15T09:45:34;98109.00;;;0.88;75.45
54592;BME280;40488;48.558;18.150;2024-01-15T09:48:03;98093.22;;;1.00;74.89
54592;BME280;40488;48.558;18.150;2024-01-15T09:50:32;98095.91;;;1.16;74.12
54592;BME280;40488;48.558;18.150;2024-01-15T09:53:01;98100.25;;;1.31;74.01
54592;BME280;40488;48.558;18.150;2024-01-15T09:55:32;98099.56;;;1.46;73.74
54592;BME280;40488;48.558;18.150;2024-01-15T09:58:00;98081.09;;;1.41;73.03
54592;BME280;40488;48.558;18.150;2024-01-15T10:00:30;98089.59;;;1.55;72.28
54592;BME280;40488;48.558;18.150;2024-01-15T10:03:01;98091.31;;;1.62;71.58
54592;BME280;40488;48.558;18.150;2024-01-15T10:05:31;98015.66;;;1.28;71.69
54592;BME280;40488;48.558;18.150;2024-01-15T10:08:01;98076.38;;;1.77;71.64
54592;BME280;40488;48.558;18.150;2024-01-15T10:10:31;98015.84;;;1.53;70.68
54592;BME280;40488;48.558;18.150;2024-01-15T10:12:59;98066.44;;;1.92;71.11
54592;BME280;40488;48.558;18.150;2024-01-15T10:15:29;98073.19;;;1.99;70.40
54592;BME280;40488;48.558;18.150;2024-01-15T10:17:57;98064.78;;;1.97;70.52
54592;BME280;40488;48.558;18.150;2024-01-15T10:20:28;98084.97;;;2.09;69.73
54592;BME280;40488;48.558;18.150;2024-01-15T10:22:57;98089.22;;;2.15;69.83
54592;BME280;40488;48.558;18.150;2024-01-15T10:25:26;98069.06;;;2.10;69.90
54592;BME280;40488;48.558;18.150;2024-01-15T10:28:02;98075.81;;;2.17;69.59
54592;BME280;40488;48.558;18.150;2024-01-15T10:30:32;98065.78;;;2.20;68.72
54592;BME280;40488;48.558;18.150;2024-01-15T10:33:02;98057.41;;;2.23;68.78
54592;BME280;40488;48.558;18.150;2024-01-15T10:35:35;98063.34;;;2.38;68.01
54592;BME280;40488;48.558;18.150;2024-01-15T10:38:05;98060.09;;;2.51;68.38
54592;BME280;40488;48.558;18.150;2024-01-15T10:40:35;98060.94;;;2.53;67.49
54592;BME280;40488;48.558;18.150;2024-01-15T10:43:04;98060.94;;;2.56;66.82
54592;BME280;40488;48.558;18.150;2024-01-15T10:45:35;98060.13;;;2.63;67.38
54592;BME280;40488;48.558;18.150;2024-01-15T10:48:08;98051.78;;;2.70;67.47
54592;BME280;40488;48.558;18.150;2024-01-15T10:50:43;98054.34;;;2.87;67.41
54592;BME280;40488;48.558;18.150;2024-01-15T10:53:14;98058.63;;;3.14;66.49
54592;BME280;40488;48.558;18.150;2024-01-15T10:55:45;98060.34;;;3.51;66.58
54592;BME280;40488;48.558;18.150;2024-01-15T10:58:18;98062.03;;;3.79;66.38
54592;BME280;40488;48.558;18.150;2024-01-15T11:00:49;98055.31;;;3.87;65.38
54592;BME280;40488;48.558;18.150;2024-01-15T11:03:18;98061.19;;;3.74;64.11
54592;BME280;40488;48.558;18.150;2024-01-15T11:05:49;98070.44;;;3.72;64.75
54592;BME280;40488;48.558;18.150;2024-01-15T11:08:18;98053.63;;;3.56;64.60
54592;BME280;40488;48.558;18.150;2024-01-15T11:10:48;98067.09;;;3.58;64.29
54592;BME280;40488;48.558;18.150;2024-01-15T11:13:20;98068.75;;;3.53;63.96
54592;BME280;40488;48.558;18.150;2024-01-15T11:16:00;98063.72;;;3.53;63.89
54592;BME280;40488;48.558;18.150;2024-01-15T11:18:32;98062.03;;;3.49;64.39
54592;BME280;40488;48.558;18.150;2024-01-15T11:21:21;98062.88;;;3.47;64.07
54592;BME280;40488;48.558;18.150;2024-01-15T11:23:54;98051.94;;;3.31;64.21
54592;BME280;40488;48.558;18.150;2024-01-15T11:26:34;98062.84;;;3.22;63.59
54592;BME280;40488;48.558;18.150;2024-01-15T11:29:05;98056.94;;;3.13;64.05
54592;BME280;40488;48.558;18.150;2024-01-15T11:37:18;98047.72;;;3.22;64.55
54592;BME280;40488;48.558;18.150;2024-01-15T11:39:47;98041.81;;;3.13;63.78
54592;BME280;40488;48.558;18.150;2024-01-15T11:42:15;98038.44;;;3.11;63.81
54592;BME280;40488;48.558;18.150;2024-01-15T11:44:46;98019.97;;;3.00;63.58
54592;BME280;40488;48.558;18.150;2024-01-15T11:47:15;98025.00;;;3.06;64.23
54592;BME280;40488;48.558;18.150;2024-01-15T11:49:59;98038.44;;;3.02;64.70
54592;BME280;40488;48.558;18.150;2024-01-15T11:52:36;98019.94;;;2.94;64.59
54592;BME280;40488;48.558;18.150;2024-01-15T11:55:12;98027.50;;;2.97;64.24
54592;BME280;40488;48.558;18.150;2024-01-15T11:57:46;98028.31;;;2.96;64.93
54592;BME280;40488;48.558;18.150;2024-01-15T12:00:16;98018.28;;;2.93;64.69
54592;BME280;40488;48.558;18.150;2024-01-15T12:02:46;98016.59;;;2.99;64.91
54592;BME280;40488;48.558;18.150;2024-01-15T12:05:17;98009.03;;;2.99;64.78
54592;BME280;40488;48.558;18.150;2024-01-15T12:07:49;98016.59;;;3.04;64.56
54592;BME280;40488;48.558;18.150;2024-01-15T12:10:20;98016.59;;;3.10;64.95
54592;BME280;40488;48.558;18.150;2024-01-15T12:12:58;98011.56;;;3.10;64.82
54592;BME280;40488;48.558;18.150;2024-01-15T12:15:28;97999.84;;;3.12;65.09
54592;BME280;40488;48.558;18.150;2024-01-15T12:17:59;97989.75;;;3.18;64.28
54592;BME280;40488;48.558;18.150;2024-01-15T12:20:31;97980.50;;;3.29;64.50
54592;BME280;40488;48.558;18.150;2024-01-15T12:23:03;97973.81;;;3.35;64.32
54592;BME280;40488;48.558;18.150;2024-01-15T12:25:36;97969.59;;;3.45;63.70
54592;BME280;40488;48.558;18.150;2024-01-15T12:28:05;97966.19;;;3.76;63.36
54592;BME280;40488;48.558;18.150;2024-01-15T12:30:35;97971.19;;;4.00;62.75
54592;BME280;40488;48.558;18.150;2024-01-15T12:33:06;97959.41;;;4.02;62.91
54592;BME280;40488;48.558;18.150;2024-01-15T12:35:37;97964.38;;;4.27;62.61
54592;BME280;40488;48.558;18.150;2024-01-15T12:38:07;97965.16;;;4.44;61.56
54592;BME280;40488;48.558;18.150;2024-01-15T12:40:36;97965.84;;;4.73;60.82
54592;BME280;40488;48.558;18.150;2024-01-15T12:43:05;97958.72;;;5.32;60.70
54592;BME280;40488;48.558;18.150;2024-01-15T12:45:36;97961.16;;;5.45;59.02
54592;BME280;40488;48.558;18.150;2024-01-15T12:48:05;97961.25;;;5.32;58.56
54592;BME280;40488;48.558;18.150;2024-01-15T12:50:34;97963.63;;;5.48;58.06
54592;BME280;40488;48.558;18.150;2024-01-15T12:53:04;97958.31;;;5.76;57.35
54592;BME280;40488;48.558;18.150;2024-01-15T12:55:35;97951.34;;;6.01;57.24
54592;BME280;40488;48.558;18.150;2024-01-15T12:58:05;97945.41;;;6.06;56.96
54592;BME280;40488;48.558;18.150;2024-01-15T13:00:33;97958.84;;;6.12;56.28
54592;BME280;40488;48.558;18.150;2024-01-15T13:03:03;97951.44;;;5.90;55.93
54592;BME280;40488;48.558;18.150;2024-01-15T13:05:32;97956.88;;;5.50;56.16
54592;BME280;40488;48.558;18.150;2024-01-15T13:08:02;97947.22;;;4.91;57.02
54592;BME280;40488;48.558;18.150;2024-01-15T13:10:31;97951.63;;;4.54;57.85
54592;BME280;40488;48.558;18.150;2024-01-15T13:13:01;97951.72;;;4.39;58.45